Time;durP1;ratioP1;P1;durP2;ratioP2;P2;SDS_P1;SDS_P2;PMS_P1;PMS_P2;Temp;Humidity;BMP_temperature;BMP_pressure;BME280_temperature;BME280_humidity;BME280_pressure;Samples;Min_cycle;Max_cycle;Signal;HPM_P1;HPM_P2
2023/12/15 00:01:17;;;;;;;15.50;10.07;;;;;;;;;;5029188;28;20464;-79
2023/12/15 00:03:45;;;;;;;13.30;8.43;;;;;;;;;;5029707;28;20460;-80
2023/12/15 00:06:12;;;;;;;11.80;8.63;;;;;;;;;;5027556;28;20463;-78
2023/12/15 00:08:41;;;;;;;14.17;8.47;;;;;;;;;;5029903;28;20469;-78
2023/12/15 00:11:09;;;;;;;13.60;8.77;;;;;;;;;;5031117;28;20470;-80
2023/12/15 00:13:36;;;;;;;14.43;9.00;;;;;;;;;;5030433;28;20498;-79
2023/12/15 00:16:05;;;;;;;16.07;9.37;;;;;;;;;;5034615;28;20462;-78
2023/12/15 00:18:33;;;;;;;18.50;9.17;;;;;;;;;;5031159;28;20758;-79
2023/12/15 00:21:00;;;;;;;13.90;8.77;;;;;;;;;;5032061;28;20442;-80
2023/12/15 00:23:28;;;;;;;15.70;9.97;;;;;;;;;;5028096;28;20551;-79
2023/12/15 00:25:55;;;;;;;15.83;9.60;;;;;;;;;;5029902;28;20472;-79
2023/12/15 00:28:23;;;;;;;15.80;9.80;;;;;;;;;;5030820;28;20458;-78
2023/12/15 00:30:50;;;;;;;17.73;9.40;;;;;;;;;;5029705;28;20458;-79
2023/12/15 00:33:19;;;;;;;16.23;9.50;;;;;;;;;;5026710;28;20747;-79
2023/12/15 00:35:48;;;;;;;15.93;9.00;;;;;;;;;;5027339;28;20461;-80
2023/12/15 00:38:16;;;;;;;15.50;10.20;;;;;;;;;;5024249;28;20468;-78
2023/12/15 00:40:43;;;;;;;16.40;9.10;;;;;;;;;;5028285;28;20454;-79
2023/12/15 00:43:11;;;;;;;14.90;9.67;;;;;;;;;;5034175;28;20457;-79
2023/12/15 00:45:41;;;;;;;15.97;8.67;;;;;;;;;;5028822;28;20461;-80
2023/12/15 00:48:09;;;;;;;19.50;11.23;;;;;;;;;;5028330;28;20465;-78
2023/12/15 00:50:38;;;;;;;14.10;8.60;;;;;;;;;;5032549;28;20458;-80
2023/12/15 00:53:06;;;;;;;16.57;9.00;;;;;;;;;;5032602;28;20470;-77
2023/12/15 00:55:34;;;;;;;16.30;8.40;;;;;;;;;;5034673;28;20468;-79
2023/12/15 00:58:02;;;;;;;18.93;11.97;;;;;;;;;;5035753;28;20426;-77
2023/12/15 01:00:29;;;;;;;22.10;10.00;;;;;;;;;;5032464;28;20454;-78
2023/12/15 01:02:57;;;;;;;18.53;9.70;;;;;;;;;;5031082;28;20470;-79
2023/12/15 01:05:24;;;;;;;16.13;10.87;;;;;;;;;;5030411;28;20811;-79
2023/12/15 01:07:53;;;;;;;16.13;10.33;;;;;;;;;;5032018;28;20452;-80
2023/12/15 01:10:21;;;;;;;16.43;10.50;;;;;;;;;;5029466;28;20767;-80
2023/12/15 01:12:48;;;;;;;18.80;11.10;;;;;;;;;;5031689;28;20446;-80
2023/12/15 01:15:16;;;;;;;17.03;10.70;;;;;;;;;;5030155;28;20489;-80
2023/12/15 01:17:44;;;;;;;19.87;10.30;;;;;;;;;;5032310;28;20526;-79
2023/12/15 01:20:16;;;;;;;15.50;9.53;;;;;;;;;;5032407;28;20441;-80
2023/12/15 01:22:47;;;;;;;24.47;11.30;;;;;;;;;;5031599;28;20564;-80
2023/12/15 01:25:17;;;;;;;18.80;10.00;;;;;;;;;;5028325;28;20557;-79
2023/12/15 01:27:44;;;;;;;21.43;10.63;;;;;;;;;;5028630;28;20458;-80
2023/12/15 01:30:15;;;;;;;18.40;9.87;;;;;;;;;;5031406;28;20549;-79
2023/12/15 01:32:43;;;;;;;15.60;9.37;;;;;;;;;;5030862;28;20944;-79
2023/12/15 01:35:10;;;;;;;17.27;9.33;;;;;;;;;;5028327;28;20521;-79
2023/12/15 01:37:38;;;;;;;20.00;10.67;;;;;;;;;;5028397;28;20465;-80
2023/12/15 01:40:09;;;;;;;15.40;10.27;;;;;;;;;;5027858;28;20497;-78
2023/12/15 01:42:37;;;;;;;13.97;9.60;;;;;;;;;;5031274;28;20492;-80
2023/12/15 01:45:08;;;;;;;18.30;9.77;;;;;;;;;;5030759;28;20457;-80
2023/12/15 01:47:36;;;;;;;14.07;8.73;;;;;;;;;;5031539;28;20465;-79
2023/12/15 01:50:09;;;;;;;15.50;9.13;;;;;;;;;;5031123;28;20528;-79
2023/12/15 01:52:37;;;;;;;19.20;10.53;;;;;;;;;;5032201;28;20557;-79
2023/12/15 01:55:05;;;;;;;20.50;11.70;;;;;;;;;;5031847;28;20504;-79
2023/12/15 01:57:32;;;;;;;17.73;9.50;;;;;;;;;;5032875;28;20463;-78
2023/12/15 02:00:15;;;;;;;15.70;9.77;;;;;;;;;;5030988;28;20473;-80
2023/12/15 02:02:42;;;;;;;16.53;9.83;;;;;;;;;;5031240;28;20434;-79
2023/12/15 02:05:10;;;;;;;16.40;9.93;;;;;;;;;;5029521;28;20465;-80
2023/12/15 02:07:41;;;;;;;14.60;10.03;;;;;;;;;;5030053;28;20470;-79
2023/12/15 02:10:09;;;;;;;19.57;10.53;;;;;;;;;;5031861;28;20438;-79
2023/12/15 02:12:36;;;;;;;20.97;11.30;;;;;;;;;;5027561;28;20712;-79
2023/12/15 02:15:08;;;;;;;18.30;9.63;;;;;;;;;;5023806;28;20476;-79
2023/12/15 02:17:36;;;;;;;20.07;10.83;;;;;;;;;;5010025;28;20458;-79
2023/12/15 02:20:10;;;;;;;22.73;10.40;;;;;;;;;;5013350;28;20485;-78
2023/12/15 02:22:39;;;;;;;18.90;11.07;;;;;;;;;;5035403;28;20504;-80
2023/12/15 02:25:07;;;;;;;21.53;12.63;;;;;;;;;;5036349;28;20470;-78
2023/12/15 02:27:35;;;;;;;18.30;10.53;;;;;;;;;;5038558;28;20453;-78
2023/12/15 02:30:06;;;;;;;19.83;10.50;;;;;;;;;;5036460;28;20463;-79
2023/12/15 02:32:33;;;;;;;19.23;12.27;;;;;;;;;;5031181;28;20449;-79
2023/12/15 02:35:02;;;;;;;22.17;11.60;;;;;;;;;;5029827;28;20482;-79
2023/12/15 02:37:29;;;;;;;21.17;11.83;;;;;;;;;;5030846;28;20464;-77
2023/12/15 02:39:58;;;;;;;21.10;11.40;;;;;;;;;;5026658;28;20447;-78
2023/12/15 02:42:26;;;;;;;24.93;13.27;;;;;;;;;;5033581;28;20496;-80
2023/12/15 02:44:53;;;;;;;18.80;11.37;;;;;;;;;;5031963;28;20478;-79
2023/12/15 02:47:21;;;;;;;22.53;12.10;;;;;;;;;;5031868;28;20452;-79
2023/12/15 02:49:49;;;;;;;28.80;13.90;;;;;;;;;;5031295;28;20461;-79
2023/12/15 02:52:16;;;;;;;23.27;12.43;;;;;;;;;;5031130;28;20468;-80
2023/12/15 02:54:43;;;;;;;19.27;12.20;;;;;;;;;;5031085;28;20489;-78
2023/12/15 02:57:13;;;;;;;22.30;12.07;;;;;;;;;;5029729;28;20525;-78
2023/12/15 02:59:40;;;;;;;19.23;11.60;;;;;;;;;;5030578;28;20459;-79
2023/12/15 03:02:08;;;;;;;23.70;12.67;;;;;;;;;;5016624;28;20447;-80
2023/12/15 03:04:35;;;;;;;24.77;12.90;;;;;;;;;;5033865;28;20481;-79
2023/12/15 03:07:03;;;;;;;21.13;11.37;;;;;;;;;;5031868;28;20452;-80
2023/12/15 03:09:33;;;;;;;23.70;13.07;;;;;;;;;;5032149;28;20810;-79
2023/12/15 03:12:00;;;;;;;21.30;11.30;;;;;;;;;;5034361;28;20464;-78
2023/12/15 03:14:29;;;;;;;21.23;12.27;;;;;;;;;;5033709;28;20525;-80
2023/12/15 03:16:57;;;;;;;23.90;13.30;;;;;;;;;;5032697;28;20458;-79
2023/12/15 03:19:24;;;;;;;26.13;14.77;;;;;;;;;;5031202;28;20486;-79
2023/12/15 03:21:52;;;;;;;23.17;13.00;;;;;;;;;;5033217;28;20488;-80
2023/12/15 03:27:11;;;;;;;24.23;13.63;;;;;;;;;;5032406;28;20478;-80
2023/12/15 03:29:40;;;;;;;24.93;13.23;;;;;;;;;;5029572;28;20481;-79
2023/12/15 03:32:08;;;;;;;19.97;12.50;;;;;;;;;;5027596;28;20463;-78
2023/12/15 03:34:35;;;;;;;21.47;12.43;;;;;;;;;;5024259;28;20494;-78
2023/12/15 03:37:03;;;;;;;28.53;15.03;;;;;;;;;;5025621;28;20453;-79
2023/12/15 03:39:30;;;;;;;20.23;12.40;;;;;;;;;;5029965;28;20522;-79
2023/12/15 03:41:58;;;;;;;24.03;13.50;;;;;;;;;;5032173;28;20785;-80
2023/12/15 03:44:25;;;;;;;27.03;15.53;;;;;;;;;;5033440;28;20457;-79
2023/12/15 03:46:54;;;;;;;21.40;11.50;;;;;;;;;;5034888;28;20503;-79
2023/12/15 03:49:22;;;;;;;24.53;13.93;;;;;;;;;;5034875;28;20457;-80
2023/12/15 03:51:49;;;;;;;30.40;13.90;;;;;;;;;;5034750;28;20431;-79
2023/12/15 03:54:17;;;;;;;20.50;11.43;;;;;;;;;;5032752;28;20484;-79
2023/12/15 03:56:44;;;;;;;22.03;12.17;;;;;;;;;;5032292;28;20438;-79
2023/12/15 03:59:11;;;;;;;22.90;12.47;;;;;;;;;;5031013;28;20465;-79
2023/12/15 04:01:39;;;;;;;20.80;12.53;;;;;;;;;;5032591;28;20885;-78
2023/12/15 04:04:08;;;;;;;21.20;12.43;;;;;;;;;;5030917;28;20450;-79
2023/12/15 04:06:39;;;;;;;21.87;11.90;;;;;;;;;;5032321;28;20450;-79
2023/12/15 04:09:09;;;;;;;21.90;11.67;;;;;;;;;;5030527;28;20740;-79
2023/12/15 04:11:37;;;;;;;22.60;11.53;;;;;;;;;;5032600;28;20458;-79
2023/12/15 04:14:05;;;;;;;24.10;12.50;;;;;;;;;;5029295;28;20481;-79
2023/12/15 04:16:36;;;;;;;22.13;11.70;;;;;;;;;;5030050;28;20457;-79
2023/12/15 04:19:03;;;;;;;20.80;12.20;;;;;;;;;;5028871;28;20502;-79
2023/12/15 04:21:35;;;;;;;26.57;11.80;;;;;;;;;;5029073;28;20479;-78
2023/12/15 04:24:06;;;;;;;22.87;12.47;;;;;;;;;;5028604;28;20486;-79
2023/12/15 04:26:37;;;;;;;23.40;13.43;;;;;;;;;;5026019;28;20465;-78
2023/12/15 04:29:04;;;;;;;25.20;13.00;;;;;;;;;;5027204;28;20519;-80
2023/12/15 04:31:31;;;;;;;27.73;13.97;;;;;;;;;;5032237;28;20525;-78
2023/12/15 04:33:59;;;;;;;27.47;14.13;;;;;;;;;;5030323;28;20456;-79
2023/12/15 04:36:27;;;;;;;25.90;14.90;;;;;;;;;;5030232;28;20533;-80
2023/12/15 04:38:56;;;;;;;26.37;12.47;;;;;;;;;;5031981;28;20458;-78
2023/12/15 04:41:25;;;;;;;22.50;12.63;;;;;;;;;;5026603;28;20462;-77
2023/12/15 04:43:53;;;;;;;25.77;14.40;;;;;;;;;;5026697;28;20854;-78
2023/12/15 04:46:24;;;;;;;30.13;13.73;;;;;;;;;;5030085;28;20501;-79
2023/12/15 04:48:51;;;;;;;24.97;12.53;;;;;;;;;;5032775;28;20454;-80
2023/12/15 04:51:19;;;;;;;25.73;13.60;;;;;;;;;;5026383;28;20477;-79
2023/12/15 04:53:47;;;;;;;27.93;13.77;;;;;;;;;;5024426;28;20880;-78
2023/12/15 04:56:16;;;;;;;23.27;13.53;;;;;;;;;;5024468;28;20514;-78
2023/12/15 04:58:44;;;;;;;26.23;13.43;;;;;;;;;;5023054;28;20985;-78
2023/12/15 05:01:12;;;;;;;26.93;13.97;;;;;;;;;;5031099;28;20526;-79
2023/12/15 05:03:40;;;;;;;28.17;15.10;;;;;;;;;;5031499;28;20462;-80
2023/12/15 05:06:08;;;;;;;29.50;15.93;;;;;;;;;;5031835;28;20480;-79
2023/12/15 05:08:35;;;;;;;25.73;13.00;;;;;;;;;;5032147;28;20526;-80
2023/12/15 05:11:03;;;;;;;28.13;16.50;;;;;;;;;;5032337;28;20474;-80
2023/12/15 05:13:32;;;;;;;27.57;12.53;;;;;;;;;;5035488;28;20472;-83
2023/12/15 05:15:59;;;;;;;28.57;15.10;;;;;;;;;;5032579;28;20500;-79
2023/12/15 05:18:27;;;;;;;32.90;14.97;;;;;;;;;;5033500;28;20445;-79
2023/12/15 05:20:54;;;;;;;27.30;13.20;;;;;;;;;;5033284;28;20432;-78
2023/12/15 05:23:22;;;;;;;26.37;13.47;;;;;;;;;;5031371;28;20547;-80
2023/12/15 05:25:49;;;;;;;25.70;14.40;;;;;;;;;;5032563;28;20446;-80
2023/12/15 05:28:17;;;;;;;26.40;14.60;;;;;;;;;;5030273;28;20473;-80
2023/12/15 05:30:46;;;;;;;27.77;13.90;;;;;;;;;;5030257;28;20456;-80
2023/12/15 05:33:13;;;;;;;27.27;15.10;;;;;;;;;;5026654;28;20517;-78
2023/12/15 05:35:41;;;;;;;25.87;14.57;;;;;;;;;;5025811;28;20491;-80
2023/12/15 05:38:08;;;;;;;27.20;14.47;;;;;;;;;;5026297;28;20456;-78
2023/12/15 05:40:36;;;;;;;27.33;14.80;;;;;;;;;;5026586;28;20441;-80
2023/12/15 05:43:03;;;;;;;21.20;12.57;;;;;;;;;;5023314;28;20551;-80
2023/12/15 05:45:31;;;;;;;30.37;14.23;;;;;;;;;;5025465;28;20502;-80
2023/12/15 05:47:59;;;;;;;32.17;15.37;;;;;;;;;;5026983;28;20920;-79
2023/12/15 05:50:27;;;;;;;28.00;13.93;;;;;;;;;;5026087;28;20453;-78
2023/12/15 05:52:54;;;;;;;28.70;15.60;;;;;;;;;;5024981;28;20466;-78
2023/12/15 05:55:22;;;;;;;24.90;12.57;;;;;;;;;;5027658;28;20512;-78
2023/12/15 05:57:49;;;;;;;20.27;11.33;;;;;;;;;;5028742;28;20446;-79
2023/12/15 06:00:17;;;;;;;24.83;12.20;;;;;;;;;;5029763;28;20461;-79
2023/12/15 06:02:45;;;;;;;20.87;13.07;;;;;;;;;;5026140;28;20461;-79
2023/12/15 06:05:14;;;;;;;21.73;11.50;;;;;;;;;;5028397;28;20453;-79
2023/12/15 06:07:41;;;;;;;20.33;10.57;;;;;;;;;;5026943;28;20479;-79
2023/12/15 06:10:10;;;;;;;21.90;11.70;;;;;;;;;;5027011;28;20434;-79
2023/12/15 06:12:37;;;;;;;23.47;11.50;;;;;;;;;;5033114;28;20473;-79
2023/12/15 06:15:08;;;;;;;28.47;12.10;;;;;;;;;;5035322;28;20496;-80
2023/12/15 06:17:36;;;;;;;23.50;12.77;;;;;;;;;;5035190;28;20491;-78
2023/12/15 06:20:08;;;;;;;21.00;11.80;;;;;;;;;;5034164;28;20441;-78
2023/12/15 06:22:37;;;;;;;25.67;14.03;;;;;;;;;;5028666;28;20466;-79
2023/12/15 06:25:05;;;;;;;25.67;11.57;;;;;;;;;;5018413;28;20479;-80
2023/12/15 06:27:32;;;;;;;23.00;12.93;;;;;;;;;;5004119;28;20688;-77
2023/12/15 06:30:00;;;;;;;23.97;12.40;;;;;;;;;;5005841;28;20453;-79
2023/12/15 06:32:28;;;;;;;21.40;11.10;;;;;;;;;;5009472;28;20470;-79
2023/12/15 06:34:55;;;;;;;21.27;12.20;;;;;;;;;;5010192;28;20489;-80
2023/12/15 06:37:23;;;;;;;22.57;11.97;;;;;;;;;;5011330;28;20470;-79
2023/12/15 06:39:52;;;;;;;19.23;12.77;;;;;;;;;;5010508;28;20934;-79
2023/12/15 06:42:19;;;;;;;20.50;11.70;;;;;;;;;;5004400;28;20875;-79
2023/12/15 06:44:47;;;;;;;22.83;11.50;;;;;;;;;;5005683;28;20459;-79
2023/12/15 06:47:15;;;;;;;19.70;10.70;;;;;;;;;;5011034;28;20449;-80
2023/12/15 06:49:42;;;;;;;21.37;12.20;;;;;;;;;;5011184;28;20446;-80
2023/12/15 06:52:10;;;;;;;21.40;12.00;;;;;;;;;;5005225;28;20451;-79
2023/12/15 06:54:40;;;;;;;20.03;11.43;;;;;;;;;;5005516;28;20838;-79
2023/12/15 06:57:09;;;;;;;27.83;12.20;;;;;;;;;;5005928;28;20485;-79
2023/12/15 06:59:37;;;;;;;22.17;11.20;;;;;;;;;;5006755;28;20446;-79
2023/12/15 07:02:04;;;;;;;18.20;9.50;;;;;;;;;;5004698;28;20466;-79
2023/12/15 07:04:32;;;;;;;21.80;12.20;;;;;;;;;;5006799;28;20534;-79
2023/12/15 07:07:00;;;;;;;17.97;11.33;;;;;;;;;;5005159;28;20530;-79
2023/12/15 07:09:27;;;;;;;19.67;11.00;;;;;;;;;;5006826;28;20525;-77
2023/12/15 07:11:57;;;;;;;21.30;10.90;;;;;;;;;;5006640;28;20863;-79
2023/12/15 07:14:26;;;;;;;20.60;12.00;;;;;;;;;;5005522;28;20459;-78
2023/12/15 07:16:53;;;;;;;27.33;10.87;;;;;;;;;;5006485;28;20557;-79
2023/12/15 07:19:21;;;;;;;19.47;10.90;;;;;;;;;;5003880;28;20472;-78
2023/12/15 07:21:48;;;;;;;25.00;13.77;;;;;;;;;;5007711;28;20456;-79
2023/12/15 07:24:16;;;;;;;22.57;10.57;;;;;;;;;;5006143;28;20547;-79
2023/12/15 07:26:44;;;;;;;21.13;11.60;;;;;;;;;;5006230;28;20429;-80
2023/12/15 07:29:11;;;;;;;20.40;11.60;;;;;;;;;;5004185;28;20548;-79
2023/12/15 07:31:40;;;;;;;25.00;12.60;;;;;;;;;;5008997;28;20450;-81
2023/12/15 07:34:09;;;;;;;23.23;12.20;;;;;;;;;;5011949;28;20858;-79
2023/12/15 07:36:36;;;;;;;22.23;11.40;;;;;;;;;;5013136;28;20478;-78
2023/12/15 07:39:12;;;;;;;27.63;14.50;;;;;;;;;;5012439;28;20950;-79
2023/12/15 07:41:40;;;;;;;28.37;12.70;;;;;;;;;;5008394;28;20462;-80
2023/12/15 07:44:07;;;;;;;25.40;13.47;;;;;;;;;;5005368;28;20460;-79
2023/12/15 07:46:35;;;;;;;31.37;14.53;;;;;;;;;;5011064;28;20463;-79
2023/12/15 07:49:04;;;;;;;33.43;14.20;;;;;;;;;;5014119;28;20514;-79
2023/12/15 07:51:31;;;;;;;31.60;14.00;;;;;;;;;;5008169;28;20447;-78
2023/12/15 07:53:59;;;;;;;35.73;14.97;;;;;;;;;;5005275;28;20819;-79
2023/12/15 07:56:28;;;;;;;27.23;13.87;;;;;;;;;;5002560;28;20572;-79
2023/12/15 07:58:56;;;;;;;33.37;14.87;;;;;;;;;;5001175;28;20466;-77
2023/12/15 08:01:24;;;;;;;27.20;14.10;;;;;;;;;;5000143;28;20467;-78
2023/12/15 08:03:52;;;;;;;31.40;16.17;;;;;;;;;;5004624;28;20522;-79
2023/12/15 08:06:21;;;;;;;33.63;15.40;;;;;;;;;;5003674;28;20458;-78
2023/12/15 08:08:51;;;;;;;29.47;14.90;;;;;;;;;;5000787;28;20467;-79
2023/12/15 08:11:19;;;;;;;33.53;15.03;;;;;;;;;;5003160;28;20462;-79
2023/12/15 08:13:46;;;;;;;35.43;14.83;;;;;;;;;;5000554;28;20624;-77
2023/12/15 08:16:14;;;;;;;38.30;16.33;;;;;;;;;;5005201;28;20486;-79
2023/12/15 08:18:43;;;;;;;45.20;18.50;;;;;;;;;;5006486;28;20435;-78
2023/12/15 08:21:18;;;;;;;37.47;17.50;;;;;;;;;;5003648;28;20545;-80
2023/12/15 08:23:47;;;;;;;36.43;18.10;;;;;;;;;;5007653;28;20495;-79
2023/12/15 08:26:20;;;;;;;34.57;18.40;;;;;;;;;;5008035;28;20452;-78
2023/12/15 08:28:48;;;;;;;40.47;18.00;;;;;;;;;;5004903;28;20469;-77
2023/12/15 08:31:16;;;;;;;33.43;16.23;;;;;;;;;;5009371;28;20454;-79
2023/12/15 08:33:44;;;;;;;28.23;14.80;;;;;;;;;;5001607;28;20440;-77
2023/12/15 08:36:12;;;;;;;39.33;14.77;;;;;;;;;;5005129;28;20495;-79
2023/12/15 08:38:40;;;;;;;45.17;18.23;;;;;;;;;;5006375;28;20584;-79
2023/12/15 08:41:10;;;;;;;39.20;17.70;;;;;;;;;;5008276;28;20466;-78
2023/12/15 08:43:38;;;;;;;40.57;15.77;;;;;;;;;;5011324;28;20459;-78
2023/12/15 08:46:06;;;;;;;38.93;17.20;;;;;;;;;;5007261;28;20489;-78
2023/12/15 08:48:34;;;;;;;34.63;17.10;;;;;;;;;;5006887;28;20589;-79
2023/12/15 08:51:02;;;;;;;43.90;18.00;;;;;;;;;;5006654;28;20461;-78
2023/12/15 08:53:29;;;;;;;38.73;16.40;;;;;;;;;;5006827;28;20763;-78
2023/12/15 08:55:57;;;;;;;45.63;21.50;;;;;;;;;;5005244;28;21005;-77
2023/12/15 08:58:28;;;;;;;38.13;18.17;;;;;;;;;;5003320;28;20469;-77
2023/12/15 09:00:59;;;;;;;41.93;18.57;;;;;;;;;;5008934;28;20834;-77
2023/12/15 09:03:31;;;;;;;39.90;19.20;;;;;;;;;;5017640;28;20497;-77
2023/12/15 09:05:59;;;;;;;43.53;16.70;;;;;;;;;;5023849;28;20509;-78
2023/12/15 09:08:27;;;;;;;36.90;15.50;;;;;;;;;;5024200;28;20529;-78
2023/12/15 09:10:55;;;;;;;40.07;16.10;;;;;;;;;;5019987;28;20520;-77
2023/12/15 09:13:22;;;;;;;42.00;15.00;;;;;;;;;;5015039;28;20447;-77
2023/12/15 09:15:52;;;;;;;36.63;16.30;;;;;;;;;;5015239;28;20527;-78
2023/12/15 09:18:19;;;;;;;42.43;17.43;;;;;;;;;;5014847;28;20450;-77
2023/12/15 09:20:49;;;;;;;39.20;18.70;;;;;;;;;;5023088;28;20454;-77
2023/12/15 09:23:17;;;;;;;34.03;17.20;;;;;;;;;;5024152;28;20511;-77
2023/12/15 09:25:49;;;;;;;39.80;18.50;;;;;;;;;;5026957;28;20461;-77
2023/12/15 09:28:17;;;;;;;31.30;18.63;;;;;;;;;;5030202;28;20445;-78
2023/12/15 09:30:44;;;;;;;36.40;18.40;;;;;;;;;;5030460;28;20465;-77
2023/12/15 09:33:13;;;;;;;32.20;15.53;;;;;;;;;;5028081;28;20462;-78
2023/12/15 09:35:41;;;;;;;40.57;17.83;;;;;;;;;;5029930;28;20449;-77
2023/12/15 09:38:09;;;;;;;36.50;17.60;;;;;;;;;;5028288;28;20610;-78
2023/12/15 09:40:37;;;;;;;29.63;16.33;;;;;;;;;;5029943;28;20749;-77
2023/12/15 09:43:05;;;;;;;35.77;17.00;;;;;;;;;;5029901;28;20505;-78
2023/12/15 09:45:33;;;;;;;42.80;15.50;;;;;;;;;;5026966;28;20481;-78
2023/12/15 09:48:03;;;;;;;46.13;16.73;;;;;;;;;;5020177;28;20460;-77
2023/12/15 09:50:55;;;;;;;33.00;15.80;;;;;;;;;;5021195;28;20700;-78
2023/12/15 09:53:24;;;;;;;38.27;19.10;;;;;;;;;;5030935;28;20474;-80
2023/12/15 09:55:53;;;;;;;39.17;17.80;;;;;;;;;;5032657;28;20884;-78
2023/12/15 09:58:21;;;;;;;41.10;17.37;;;;;;;;;;5028126;28;20659;-78
2023/12/15 10:00:50;;;;;;;37.17;17.30;;;;;;;;;;5026393;28;20707;-78
2023/12/15 10:03:22;;;;;;;36.80;15.73;;;;;;;;;;5023927;28;20463;-79
2023/12/15 10:05:57;;;;;;;41.43;17.10;;;;;;;;;;5030003;28;20493;-78
2023/12/15 10:08:25;;;;;;;40.80;16.63;;;;;;;;;;5031148;28;20484;-79
2023/12/15 10:10:54;;;;;;;41.70;16.40;;;;;;;;;;5027975;28;20469;-79
2023/12/15 10:13:22;;;;;;;40.67;18.00;;;;;;;;;;5031117;28;20507;-78
2023/12/15 10:15:51;;;;;;;34.60;16.10;;;;;;;;;;5026998;28;20472;-79
2023/12/15 10:18:21;;;;;;;40.83;18.87;;;;;;;;;;5029126;28;20460;-79
2023/12/15 10:20:49;;;;;;;41.13;17.13;;;;;;;;;;5029496;28;20483;-79
2023/12/15 10:23:29;;;;;;;30.53;15.20;;;;;;;;;;5031135;28;20539;-77
2023/12/15 10:26:07;;;;;;;41.10;16.77;;;;;;;;;;5030676;28;20458;-79
2023/12/15 10:28:42;;;;;;;35.13;16.03;;;;;;;;;;5034743;28;20456;-78
2023/12/15 10:31:11;;;;;;;37.10;16.80;;;;;;;;;;5025972;28;20511;-78
2023/12/15 10:33:43;;;;;;;44.23;18.43;;;;;;;;;;5009405;28;20721;-78
2023/12/15 10:36:15;;;;;;;37.50;16.87;;;;;;;;;;5011577;28;20469;-78
2023/12/15 10:38:44;;;;;;;40.47;18.40;;;;;;;;;;5015813;28;20474;-77
2023/12/15 10:41:14;;;;;;;38.43;16.23;;;;;;;;;;5027611;28;20457;-76
2023/12/15 10:43:42;;;;;;;35.43;17.50;;;;;;;;;;5027340;28;20441;-77
2023/12/15 10:46:15;;;;;;;37.30;17.10;;;;;;;;;;5030130;28;20470;-78
2023/12/15 10:48:44;;;;;;;43.23;18.90;;;;;;;;;;5027570;28;20471;-79
2023/12/15 10:51:13;;;;;;;40.10;17.27;;;;;;;;;;5032294;28;20421;-78
2023/12/15 10:53:46;;;;;;;32.57;15.13;;;;;;;;;;5030807;28;20460;-78
2023/12/15 10:56:15;;;;;;;46.00;19.20;;;;;;;;;;5031894;28;20453;-78
2023/12/15 10:58:51;;;;;;;35.70;16.00;;;;;;;;;;5026804;28;20457;-77
2023/12/15 11:01:19;;;;;;;31.43;14.90;;;;;;;;;;5001390;28;20462;-78
2023/12/15 11:03:47;;;;;;;39.73;16.07;;;;;;;;;;5002039;28;20489;-78
2023/12/15 11:06:15;;;;;;;42.73;17.20;;;;;;;;;;4999569;28;20450;-78
2023/12/15 11:08:47;;;;;;;36.43;17.23;;;;;;;;;;5001064;28;20583;-77
2023/12/15 11:11:27;;;;;;;35.70;15.80;;;;;;;;;;5007417;28;20464;-78
2023/12/15 11:14:04;;;;;;;39.53;19.27;;;;;;;;;;5007901;28;20465;-79
2023/12/15 11:16:32;;;;;;;33.43;15.80;;;;;;;;;;5007738;28;20801;-79
2023/12/15 11:19:01;;;;;;;38.50;15.83;;;;;;;;;;5009680;28;20462;-78
2023/12/15 11:21:33;;;;;;;29.57;15.10;;;;;;;;;;5005109;28;20461;-77
2023/12/15 11:24:02;;;;;;;39.47;17.50;;;;;;;;;;5006739;28;20554;-78
2023/12/15 11:26:39;;;;;;;33.30;15.83;;;;;;;;;;5005648;28;20664;-79
2023/12/15 11:29:08;;;;;;;38.50;15.67;;;;;;;;;;5002884;28;20671;-78
2023/12/15 11:31:40;;;;;;;39.87;16.80;;;;;;;;;;5002710;28;20457;-79
2023/12/15 11:34:09;;;;;;;42.63;15.97;;;;;;;;;;5002120;28;20472;-78
2023/12/15 11:36:42;;;;;;;38.13;18.17;;;;;;;;;;5001234;28;20494;-79
2023/12/15 11:39:13;;;;;;;39.17;15.97;;;;;;;;;;5001650;28;20454;-78
2023/12/15 11:41:43;;;;;;;37.07;17.57;;;;;;;;;;5003548;28;20514;-78
2023/12/15 11:44:13;;;;;;;35.90;16.40;;;;;;;;;;4997568;28;20458;-78
2023/12/15 11:46:42;;;;;;;37.83;18.07;;;;;;;;;;5003666;28;20473;-79
2023/12/15 11:49:10;;;;;;;32.10;15.77;;;;;;;;;;5005929;28;20455;-78
2023/12/15 11:51:46;;;;;;;34.90;14.63;;;;;;;;;;5000805;28;20462;-79
2023/12/15 11:54:17;;;;;;;30.73;14.90;;;;;;;;;;5015577;28;20507;-79
2023/12/15 11:56:50;;;;;;;31.87;15.30;;;;;;;;;;5044468;28;20514;-78
2023/12/15 11:59:18;;;;;;;32.07;14.27;;;;;;;;;;5050382;28;20540;-79
2023/12/15 12:01:48;;;;;;;38.00;16.20;;;;;;;;;;5050014;28;20506;-78
2023/12/15 12:04:20;;;;;;;32.93;14.97;;;;;;;;;;5044203;28;20465;-78
2023/12/15 12:06:49;;;;;;;40.37;17.33;;;;;;;;;;5049286;28;20455;-77
2023/12/15 12:09:18;;;;;;;33.03;16.27;;;;;;;;;;5043296;28;20476;-79
2023/12/15 12:11:56;;;;;;;40.30;15.90;;;;;;;;;;5046192;28;20515;-77
2023/12/15 12:14:35;;;;;;;34.03;15.97;;;;;;;;;;5043422;28;20447;-77
2023/12/15 12:17:05;;;;;;;29.20;14.20;;;;;;;;;;5028822;28;20460;-78
2023/12/15 12:19:42;;;;;;;41.80;16.27;;;;;;;;;;5029599;28;20448;-78
2023/12/15 12:22:19;;;;;;;23.50;15.00;;;;;;;;;;5030165;28;20453;-78
2023/12/15 12:24:49;;;;;;;30.60;15.17;;;;;;;;;;5031220;28;20490;-78
2023/12/15 12:27:22;;;;;;;37.23;15.97;;;;;;;;;;5021671;28;20679;-79
2023/12/15 12:29:52;;;;;;;34.00;15.53;;;;;;;;;;5007492;28;20489;-79
2023/12/15 12:32:21;;;;;;;32.37;16.93;;;;;;;;;;4997164;28;20768;-79
2023/12/15 12:34:50;;;;;;;29.73;14.30;;;;;;;;;;4995905;28;20479;-79
2023/12/15 12:37:20;;;;;;;36.67;13.87;;;;;;;;;;5009148;28;20484;-78
2023/12/15 12:39:51;;;;;;;31.27;14.17;;;;;;;;;;5010698;28;20458;-80
2023/12/15 12:42:19;;;;;;;34.90;14.90;;;;;;;;;;5002416;28;20446;-79
2023/12/15 12:44:52;;;;;;;25.90;14.53;;;;;;;;;;5004342;28;20502;-78
2023/12/15 12:47:22;;;;;;;38.33;15.03;;;;;;;;;;4999756;28;20467;-78
2023/12/15 12:49:53;;;;;;;33.13;16.80;;;;;;;;;;4999679;28;20512;-81
2023/12/15 12:52:23;;;;;;;29.00;14.80;;;;;;;;;;5008253;28;20454;-80
2023/12/15 12:54:55;;;;;;;32.93;14.10;;;;;;;;;;5010830;28;20468;-80
2023/12/15 12:57:28;;;;;;;39.97;15.13;;;;;;;;;;5003993;28;20704;-78
2023/12/15 12:59:59;;;;;;;33.77;14.43;;;;;;;;;;5003179;28;20467;-78
2023/12/15 13:02:29;;;;;;;22.27;12.30;;;;;;;;;;5010268;28;20450;-79
2023/12/15 13:05:00;;;;;;;34.87;15.30;;;;;;;;;;5009546;28;20769;-80
2023/12/15 13:07:31;;;;;;;25.77;12.50;;;;;;;;;;5009628;28;20449;-79
2023/12/15 13:10:14;;;;;;;32.57;13.70;;;;;;;;;;5010672;28;20442;-79
2023/12/15 13:12:51;;;;;;;27.97;14.20;;;;;;;;;;5011589;28;20454;-79
2023/12/15 13:15:23;;;;;;;33.00;13.47;;;;;;;;;;5011799;28;20450;-78
2023/12/15 13:17:53;;;;;;;25.20;12.60;;;;;;;;;;5011245;28;20501;-79
2023/12/15 13:20:22;;;;;;;30.83;13.13;;;;;;;;;;5009594;28;20464;-79
2023/12/15 13:22:52;;;;;;;35.50;13.57;;;;;;;;;;5003647;28;20465;-78
2023/12/15 13:25:20;;;;;;;28.53;12.40;;;;;;;;;;5009076;28;20558;-79
2023/12/15 13:27:48;;;;;;;27.93;13.83;;;;;;;;;;5010485;28;20442;-79
2023/12/15 13:30:37;;;;;;;23.33;13.60;;;;;;;;;;5009444;28;20470;-80
2023/12/15 13:33:06;;;;;;;31.00;12.10;;;;;;;;;;5009023;28;20472;-78
2023/12/15 13:35:36;;;;;;;31.10;13.47;;;;;;;;;;5045906;28;20438;-79
2023/12/15 13:38:05;;;;;;;26.40;11.17;;;;;;;;;;5045426;28;20484;-79
2023/12/15 13:40:35;;;;;;;26.27;12.80;;;;;;;;;;5047995;28;20445;-80
2023/12/15 13:43:06;;;;;;;31.80;12.20;;;;;;;;;;5046844;28;20446;-78
2023/12/15 13:45:39;;;;;;;28.83;11.47;;;;;;;;;;5046396;28;20476;-79
2023/12/15 13:48:11;;;;;;;28.00;12.40;;;;;;;;;;5047527;28;20424;-79
2023/12/15 13:50:39;;;;;;;23.67;11.63;;;;;;;;;;5050964;28;20735;-79
2023/12/15 13:53:12;;;;;;;26.27;11.80;;;;;;;;;;5047297;28;20463;-80
2023/12/15 13:55:41;;;;;;;25.60;10.13;;;;;;;;;;5047662;28;20495;-79
2023/12/15 13:58:09;;;;;;;26.57;11.17;;;;;;;;;;5049903;28;20947;-80
2023/12/15 14:00:41;;;;;;;23.83;10.00;;;;;;;;;;5041266;28;20492;-78
2023/12/15 14:03:09;;;;;;;32.80;13.40;;;;;;;;;;5053129;28;20461;-79
2023/12/15 14:05:38;;;;;;;38.67;13.17;;;;;;;;;;5040778;28;20454;-79
2023/12/15 14:08:09;;;;;;;30.90;10.30;;;;;;;;;;5034404;28;20481;-80
2023/12/15 14:10:47;;;;;;;37.57;13.20;;;;;;;;;;5039045;28;20465;-78
2023/12/15 14:13:15;;;;;;;27.37;12.73;;;;;;;;;;5041520;28;20948;-80
2023/12/15 14:15:45;;;;;;;31.27;12.97;;;;;;;;;;5043993;28;20463;-79
2023/12/15 14:18:19;;;;;;;25.63;10.30;;;;;;;;;;5041130;28;20481;-77
2023/12/15 14:20:48;;;;;;;33.17;13.30;;;;;;;;;;5032447;28;20533;-79
2023/12/15 14:23:16;;;;;;;24.37;10.00;;;;;;;;;;5042775;28;20703;-78
2023/12/15 14:25:45;;;;;;;38.97;10.87;;;;;;;;;;5046635;28;20683;-80
2023/12/15 14:28:20;;;;;;;36.00;10.27;;;;;;;;;;5046392;28;20474;-78
2023/12/15 14:30:52;;;;;;;27.13;10.00;;;;;;;;;;5050049;28;20460;-80
2023/12/15 14:33:27;;;;;;;21.27;9.17;;;;;;;;;;5049907;28;20741;-78